Terminal Aerodrome Forecast
Issued by NWS Jackson, MS

Home | Current Version | Previous Version | Text Only | Print | Product List | Glossary On
Versions: 1 2 3 4 5 6 7 8 9 10 11 12 13 14 15
000
FTUS44 KJAN 272320
TAFHBG
TAF
KHBG 272320Z 2800/2824 03005KT P6SM FEW050 SCT250
     FM281200 01006KT P6SM BKN025 BKN090
     FM281500 01010KT P6SM -SHRA BKN015 BKN090
     FM281900 01012G19KT 6SM -SHRA VCTS BKN025 BKN050CB=

USA.gov is the U.S. government's official web portal to all federal, state and local government web resources and services.